createdAt,value
2017-11-29T00:01:24.759Z,98865.11
2017-11-29T00:03:51.809Z,98847.50
2017-11-29T00:06:18.644Z,98871.59
2017-11-29T00:08:46.091Z,98868.84
2017-11-29T00:11:13.568Z,98867.83
2017-11-29T00:13:40.279Z,98871.31
2017-11-29T00:16:07.042Z,98873.95
2017-11-29T00:18:34.544Z,98857.64
2017-11-29T00:21:01.437Z,98865.63
2017-11-29T00:23:28.253Z,98868.17
2017-11-29T00:25:55.132Z,98862.61
2017-11-29T00:28:22.646Z,98863.49
2017-11-29T00:30:49.453Z,98862.34
2017-11-29T00:33:16.261Z,98868.62
2017-11-29T00:35:42.918Z,98866.91
2017-11-29T00:38:09.852Z,98865.23
2017-11-29T00:40:36.996Z,98867.04
2017-11-29T00:43:04.432Z,98871.42
2017-11-29T00:45:31.170Z,98868.33
2017-11-29T00:47:58.296Z,98872.34
2017-11-29T00:50:25.170Z,98877.38
2017-11-29T00:52:51.993Z,98877.58
2017-11-29T00:55:18.789Z,98876.00
2017-11-29T00:57:45.611Z,98863.00
2017-11-29T01:00:12.637Z,98877.30
2017-11-29T01:02:39.639Z,98874.99
2017-11-29T01:05:07.346Z,98877.52
2017-11-29T01:07:34.085Z,98872.17
2017-11-29T01:10:00.971Z,98859.56
2017-11-29T01:12:27.859Z,98873.67
2017-11-29T01:14:54.650Z,98869.08
2017-11-29T01:17:22.125Z,98867.66
2017-11-29T01:19:49.319Z,98866.37
2017-11-29T01:22:16.032Z,98871.02
2017-11-29T01:24:42.733Z,98867.22
2017-11-29T01:27:09.445Z,98879.25
2017-11-29T01:29:36.198Z,98849.86
2017-11-29T01:32:02.971Z,98873.62
2017-11-29T01:34:30.353Z,98873.80
2017-11-29T01:36:56.988Z,98878.39
2017-11-29T01:39:23.706Z,98881.64
2017-11-29T01:41:50.711Z,98873.45
2017-11-29T01:44:17.284Z,98878.34
2017-11-29T01:46:44.017Z,98858.88
2017-11-29T01:49:11.195Z,98866.34
2017-11-29T01:51:37.902Z,98873.73
2017-11-29T01:54:05.447Z,98864.98
2017-11-29T01:56:32.203Z,98867.20
2017-11-29T01:58:58.906Z,98863.77
2017-11-29T02:01:25.693Z,98873.37
2017-11-29T02:03:52.436Z,98871.73
2017-11-29T02:06:26.344Z,98865.25
2017-11-29T02:08:53.794Z,98864.84
2017-11-29T02:11:20.495Z,98867.98
2017-11-29T02:13:47.264Z,98874.67
2017-11-29T02:16:13.935Z,98871.56
2017-11-29T02:18:40.623Z,98871.45
2017-11-29T02:21:07.317Z,98875.89
2017-11-29T02:23:33.927Z,98876.50
2017-11-29T02:26:00.707Z,98873.96
2017-11-29T02:28:27.561Z,98872.14
2017-11-29T02:30:54.262Z,98867.80
2017-11-29T02:33:20.983Z,98862.89
2017-11-29T02:35:48.583Z,98861.67
2017-11-29T02:38:15.182Z,98860.45
2017-11-29T02:41:00.342Z,98859.00
2017-11-29T02:43:27.077Z,98861.88
2017-11-29T02:45:53.937Z,98859.13
2017-11-29T02:48:22.335Z,98869.20
2017-11-29T02:50:49.275Z,98859.91
2017-11-29T02:53:18.399Z,98854.53
2017-11-29T02:55:47.870Z,98860.88
2017-11-29T02:58:14.817Z,98854.76
2017-11-29T03:00:41.458Z,98854.52
2017-11-29T03:03:08.179Z,98863.98
2017-11-29T03:05:34.924Z,98867.15
2017-11-29T03:08:01.555Z,98865.65
2017-11-29T03:10:28.213Z,98858.88
2017-11-29T03:12:55.078Z,98863.23
2017-11-29T03:15:21.809Z,98857.97
2017-11-29T03:17:48.549Z,98856.45
2017-11-29T03:20:15.226Z,98853.83
2017-11-29T03:22:42.141Z,98853.95
2017-11-29T03:25:08.943Z,98853.38
2017-11-29T03:27:35.788Z,98856.64
2017-11-29T03:30:02.745Z,98856.88
2017-11-29T03:32:29.800Z,98852.08
2017-11-29T03:35:00.962Z,98848.23
2017-11-29T03:37:27.767Z,98864.91
2017-11-29T03:39:54.555Z,98860.72
2017-11-29T03:42:21.224Z,98857.80
2017-11-29T03:44:47.940Z,98854.73
2017-11-29T03:47:15.574Z,98863.75
2017-11-29T03:49:42.488Z,98861.38
2017-11-29T03:52:10.000Z,98862.38
2017-11-29T03:54:36.735Z,98864.97
2017-11-29T03:57:03.631Z,98858.10
2017-11-29T03:59:30.283Z,98856.09
2017-11-29T04:01:56.972Z,98861.95
2017-11-29T04:04:25.055Z,98863.73
2017-11-29T04:06:52.979Z,98858.53
2017-11-29T04:09:19.705Z,98851.66
2017-11-29T04:11:46.511Z,98856.63
2017-11-29T04:14:13.333Z,98851.31
2017-11-29T04:16:40.257Z,98845.20
2017-11-29T04:19:07.633Z,98850.44
2017-11-29T04:21:35.309Z,98840.75
2017-11-29T04:24:02.332Z,98844.06
2017-11-29T04:26:29.081Z,98842.09
2017-11-29T04:28:55.901Z,98842.09
2017-11-29T04:31:22.696Z,98839.40
2017-11-29T04:33:49.712Z,98836.40
2017-11-29T04:36:16.381Z,98839.73
2017-11-29T04:38:43.060Z,98839.40
2017-11-29T04:41:09.859Z,98836.78
2017-11-29T04:43:36.864Z,98835.60
2017-11-29T04:46:03.788Z,98815.97
2017-11-29T04:48:30.671Z,98838.41
2017-11-29T04:50:58.036Z,98837.00
2017-11-29T04:53:26.075Z,98838.41
2017-11-29T04:56:05.578Z,98837.12
2017-11-29T05:01:34.093Z,98840.08
2017-11-29T05:04:05.050Z,98836.47
2017-11-29T05:06:45.252Z,98836.95
2017-11-29T05:09:31.848Z,98835.21
2017-11-29T05:11:58.396Z,98827.66
2017-11-29T05:14:25.836Z,98836.08
2017-11-29T05:16:54.816Z,98835.92
2017-11-29T05:19:22.049Z,98830.45
2017-11-29T05:21:48.682Z,98821.77
2017-11-29T05:24:15.467Z,98827.42
2017-11-29T05:26:42.511Z,98821.55
2017-11-29T05:29:09.377Z,98829.63
2017-11-29T05:31:36.127Z,98827.31
2017-11-29T05:34:02.799Z,98825.87
2017-11-29T05:36:29.644Z,98830.03
2017-11-29T05:38:57.036Z,98831.80
2017-11-29T05:41:24.185Z,98832.00
2017-11-29T05:43:50.969Z,98835.08
2017-11-29T05:46:18.263Z,98834.57
2017-11-29T05:48:44.903Z,98832.95
2017-11-29T05:51:11.694Z,98841.33
2017-11-29T05:53:39.757Z,98846.50
2017-11-29T05:56:06.509Z,98845.40
2017-11-29T05:58:33.283Z,98846.53
2017-11-29T06:01:00.199Z,98840.58
2017-11-29T06:03:26.927Z,98844.76
2017-11-29T06:05:53.900Z,98844.48
2017-11-29T06:08:20.555Z,98846.47
2017-11-29T06:10:47.221Z,98851.74
2017-11-29T06:13:13.890Z,98840.95
2017-11-29T06:15:40.530Z,98853.06
2017-11-29T06:18:07.239Z,98848.94
2017-11-29T06:20:34.752Z,98851.41
2017-11-29T06:23:01.875Z,98851.81
2017-11-29T06:25:28.508Z,98835.17
2017-11-29T06:27:55.832Z,98855.00
2017-11-29T06:30:22.601Z,98852.66
2017-11-29T06:32:49.393Z,98853.52
2017-11-29T06:35:17.111Z,98869.75
2017-11-29T06:37:43.776Z,98865.87
2017-11-29T06:40:10.383Z,98859.72
2017-11-29T06:42:37.007Z,98860.97
2017-11-29T06:45:03.570Z,98867.80
2017-11-29T06:47:31.045Z,98866.06
2017-11-29T06:49:57.733Z,98868.78
2017-11-29T06:52:24.280Z,98871.06
2017-11-29T06:54:50.994Z,98882.61
2017-11-29T06:57:17.585Z,98866.17
2017-11-29T06:59:44.228Z,98876.89
2017-11-29T07:02:10.788Z,98877.61
2017-11-29T07:04:37.388Z,98879.24
2017-11-29T07:07:03.967Z,98880.96
2017-11-29T07:09:30.555Z,98887.91
2017-11-29T07:11:57.127Z,98890.75
2017-11-29T07:14:23.653Z,98888.11
2017-11-29T07:16:50.262Z,98895.59
2017-11-29T07:19:16.769Z,98894.63
2017-11-29T07:21:43.282Z,98893.21
2017-11-29T07:24:10.042Z,98897.72
2017-11-29T07:26:36.564Z,98886.56
2017-11-29T07:29:03.129Z,98905.27
2017-11-29T07:31:29.875Z,98902.78
2017-11-29T07:33:56.411Z,98900.61
2017-11-29T07:36:23.994Z,98918.36
2017-11-29T07:38:50.505Z,98918.02
2017-11-29T07:43:50.459Z,98903.70
2017-11-29T07:46:16.967Z,98912.51
2017-11-29T07:48:45.322Z,98909.17
2017-11-29T07:51:11.889Z,98914.35
2017-11-29T07:53:39.010Z,98911.51
2017-11-29T07:56:05.299Z,98917.45
2017-11-29T07:58:31.724Z,98923.92
2017-11-29T08:00:58.813Z,98919.78
2017-11-29T08:03:25.197Z,98915.86
2017-11-29T08:05:52.246Z,98930.10
2017-11-29T08:08:19.493Z,98927.42
2017-11-29T08:10:46.619Z,98926.17
2017-11-29T08:13:12.925Z,98923.47
2017-11-29T08:15:39.323Z,98930.56
2017-11-29T08:18:05.711Z,98920.78
2017-11-29T08:20:34.193Z,98923.08
2017-11-29T08:23:00.492Z,98935.13
2017-11-29T08:25:26.859Z,98930.56
2017-11-29T08:27:53.253Z,98939.34
2017-11-29T08:30:19.522Z,98941.16
2017-11-29T08:32:57.291Z,98942.30
2017-11-29T08:35:25.361Z,98944.26
2017-11-29T08:37:52.457Z,98941.76
2017-11-29T08:40:18.832Z,98941.42
2017-11-29T08:42:47.987Z,98945.64
2017-11-29T08:45:14.382Z,98945.89
2017-11-29T08:47:40.666Z,98945.52
2017-11-29T08:50:07.712Z,98946.36
2017-11-29T08:52:34.773Z,98941.34
2017-11-29T08:55:01.055Z,98939.07
2017-11-29T08:57:27.431Z,98942.03
2017-11-29T08:59:53.762Z,98945.92
2017-11-29T09:02:20.097Z,98936.23
2017-11-29T09:04:46.428Z,98945.78
2017-11-29T09:07:13.470Z,98946.28
2017-11-29T09:09:39.821Z,98950.38
2017-11-29T09:12:06.158Z,98946.61
2017-11-29T09:14:32.513Z,98939.22
2017-11-29T09:16:58.824Z,98956.09
2017-11-29T09:19:26.083Z,98945.12
2017-11-29T09:21:54.030Z,98958.58
2017-11-29T09:24:20.331Z,98957.14
2017-11-29T09:26:46.590Z,98956.25
2017-11-29T09:29:12.903Z,98960.26
2017-11-29T09:31:39.928Z,98948.41
2017-11-29T09:34:06.234Z,98955.67
2017-11-29T09:36:33.392Z,98957.28
2017-11-29T09:38:59.695Z,98957.19
2017-11-29T09:41:26.068Z,98953.00
2017-11-29T09:43:52.436Z,98954.33
2017-11-29T09:46:18.676Z,98949.41
2017-11-29T09:48:44.972Z,98950.98
2017-11-29T09:51:11.291Z,98948.56
2017-11-29T09:53:37.600Z,98946.40
2017-11-29T09:56:03.878Z,98937.17
2017-11-29T09:58:30.923Z,98945.78
2017-11-29T10:00:57.963Z,98942.59
2017-11-29T10:03:24.186Z,98932.69
2017-11-29T10:05:50.464Z,98934.00
2017-11-29T10:08:16.770Z,98935.20
2017-11-29T10:10:43.067Z,98927.78
2017-11-29T10:13:09.463Z,98929.66
2017-11-29T10:15:35.821Z,98922.60
2017-11-29T10:18:02.139Z,98918.36
2017-11-29T10:20:28.425Z,98920.30
2017-11-29T10:22:55.498Z,98919.01
2017-11-29T10:25:21.924Z,98913.35
2017-11-29T10:27:48.283Z,98909.80
2017-11-29T10:30:14.649Z,98909.95
2017-11-29T10:32:40.979Z,98909.00
2017-11-29T10:35:07.320Z,98908.75
2017-11-29T10:37:33.716Z,98909.08
2017-11-29T10:40:00.060Z,98904.19
2017-11-29T10:42:26.330Z,98899.67
2017-11-29T10:44:53.350Z,98905.64
2017-11-29T10:47:19.623Z,98905.34
2017-11-29T10:49:45.954Z,98911.15
2017-11-29T10:52:12.246Z,98904.98
2017-11-29T10:54:38.774Z,98907.83
2017-11-29T10:57:05.068Z,98906.79
2017-11-29T10:59:31.355Z,98907.59
2017-11-29T11:01:57.617Z,98905.05
2017-11-29T11:04:23.900Z,98904.56
2017-11-29T11:06:51.157Z,98888.79
2017-11-29T11:09:17.438Z,98892.88
2017-11-29T11:11:43.741Z,98897.09
2017-11-29T11:14:10.082Z,98893.27
2017-11-29T11:16:36.361Z,98884.97
2017-11-29T11:19:02.669Z,98882.64
2017-11-29T11:21:28.968Z,98878.37
2017-11-29T11:23:55.268Z,98889.63
2017-11-29T11:26:21.593Z,98896.52
2017-11-29T11:28:47.970Z,98892.55
2017-11-29T11:31:14.284Z,98884.04
2017-11-29T11:33:41.328Z,98887.56
2017-11-29T11:36:08.359Z,98885.30
2017-11-29T11:38:35.391Z,98882.73
2017-11-29T11:41:01.715Z,98891.62
2017-11-29T11:43:28.128Z,98878.89
2017-11-29T11:45:54.431Z,98878.80
2017-11-29T11:48:20.690Z,98881.41
2017-11-29T11:50:46.943Z,98874.38
2017-11-29T11:53:13.224Z,98867.86
2017-11-29T11:55:39.539Z,98867.31
2017-11-29T11:58:06.565Z,98863.53
2017-11-29T12:00:32.857Z,98862.35
2017-11-29T12:02:59.139Z,98864.52
2017-11-29T12:05:26.163Z,98859.84
2017-11-29T12:07:52.408Z,98864.22
2017-11-29T12:10:18.728Z,98858.18
2017-11-29T12:12:45.015Z,98865.16
2017-11-29T12:15:11.302Z,98858.61
2017-11-29T12:17:38.358Z,98856.46
2017-11-29T12:20:05.421Z,98855.09
2017-11-29T12:22:31.739Z,98856.08
2017-11-29T12:24:58.769Z,98855.47
2017-11-29T12:27:25.982Z,98852.97
2017-11-29T12:29:52.279Z,98855.92
2017-11-29T12:32:18.586Z,98860.38
2017-11-29T12:34:44.904Z,98851.07
2017-11-29T12:37:11.235Z,98856.70
2017-11-29T12:39:37.540Z,98861.06
2017-11-29T12:42:03.899Z,98859.15
2017-11-29T12:44:31.266Z,98849.34
2017-11-29T12:46:57.549Z,98852.44
2017-11-29T12:49:42.617Z,98849.78
2017-11-29T12:52:08.894Z,98848.69
2017-11-29T12:54:35.214Z,98849.99
2017-11-29T12:57:01.490Z,98848.96
2017-11-29T12:59:27.892Z,98839.92
2017-11-29T13:01:54.190Z,98842.37
2017-11-29T13:04:20.485Z,98841.34
2017-11-29T13:06:46.762Z,98848.58
2017-11-29T13:09:13.070Z,98845.64
2017-11-29T13:11:39.418Z,98847.84
2017-11-29T13:14:05.758Z,98842.67
2017-11-29T13:16:32.076Z,98840.12
2017-11-29T13:18:58.434Z,98839.53
2017-11-29T13:21:24.791Z,98842.72
2017-11-29T13:23:51.125Z,98843.44
2017-11-29T13:26:17.440Z,98844.51
2017-11-29T13:28:43.712Z,98846.24
2017-11-29T13:31:10.015Z,98849.19
2017-11-29T13:33:37.094Z,98849.92
2017-11-29T13:36:03.387Z,98853.88
2017-11-29T13:38:29.767Z,98852.88
2017-11-29T13:40:56.134Z,98851.61
2017-11-29T13:43:22.486Z,98849.38
2017-11-29T13:45:49.537Z,98853.65
2017-11-29T13:48:16.549Z,98843.39
2017-11-29T13:50:42.846Z,98852.86
2017-11-29T13:53:09.163Z,98857.27
2017-11-29T13:55:35.452Z,98847.11
2017-11-29T13:58:01.789Z,98837.48
2017-11-29T14:00:28.916Z,98846.52
2017-11-29T14:02:55.265Z,98849.56
2017-11-29T14:05:21.705Z,98846.86
2017-11-29T14:07:48.011Z,98854.41
2017-11-29T14:10:14.322Z,98857.17
2017-11-29T14:12:40.609Z,98860.78
2017-11-29T14:15:07.642Z,98860.02
2017-11-29T14:17:33.918Z,98861.92
2017-11-29T14:20:00.176Z,98856.16
2017-11-29T14:22:26.460Z,98867.38
2017-11-29T14:24:53.500Z,98863.37
2017-11-29T14:27:20.607Z,98865.70
2017-11-29T14:29:46.877Z,98868.28
2017-11-29T14:32:13.895Z,98866.63
2017-11-29T14:34:40.199Z,98870.28
2017-11-29T14:37:06.514Z,98875.76
2017-11-29T14:39:32.949Z,98868.95
2017-11-29T14:41:59.280Z,98868.53
2017-11-29T14:44:25.565Z,98868.12
2017-11-29T14:46:51.852Z,98868.95
2017-11-29T14:49:18.184Z,98869.47
2017-11-29T14:51:44.608Z,98863.59
2017-11-29T14:54:10.885Z,98866.47
2017-11-29T14:56:37.226Z,98870.55
2017-11-29T14:59:03.527Z,98869.42
2017-11-29T15:01:29.863Z,98873.09
2017-11-29T15:03:56.161Z,98863.50
2017-11-29T15:06:22.506Z,98873.05
2017-11-29T15:08:49.557Z,98862.62
2017-11-29T15:11:15.838Z,98864.98
2017-11-29T15:13:42.874Z,98863.34
2017-11-29T15:16:09.898Z,98865.33
2017-11-29T15:18:37.261Z,98859.37
2017-11-29T15:21:03.566Z,98856.67
2017-11-29T15:23:29.919Z,98855.79
2017-11-29T15:25:56.218Z,98848.65
2017-11-29T15:28:22.553Z,98844.20
2017-11-29T15:30:48.890Z,98855.35
2017-11-29T15:33:15.223Z,98853.85
2017-11-29T15:35:41.548Z,98856.73
2017-11-29T15:38:07.914Z,98857.44
2017-11-29T15:40:34.286Z,98858.59
2017-11-29T15:43:00.574Z,98867.36
2017-11-29T15:45:26.900Z,98864.80
2017-11-29T15:47:53.252Z,98860.61
2017-11-29T15:50:19.583Z,98858.13
2017-11-29T15:52:45.879Z,98863.44
2017-11-29T15:55:12.196Z,98864.19
2017-11-29T15:57:38.551Z,98863.67
2017-11-29T16:00:04.863Z,98869.16
2017-11-29T16:02:31.165Z,98864.84
2017-11-29T16:04:57.653Z,98855.58
2017-11-29T16:07:23.958Z,98855.75
2017-11-29T16:09:50.285Z,98858.41
2017-11-29T16:12:16.691Z,98862.70
2017-11-29T16:14:43.035Z,98853.41
2017-11-29T16:17:09.359Z,98857.73
2017-11-29T16:19:37.799Z,98861.69
2017-11-29T16:22:04.221Z,98853.87
2017-11-29T16:24:30.535Z,98853.04
2017-11-29T16:26:56.953Z,98852.16
2017-11-29T16:29:23.308Z,98846.46
2017-11-29T16:31:49.619Z,98847.39
2017-11-29T16:34:15.903Z,98847.77
2017-11-29T16:36:43.052Z,98849.94
2017-11-29T16:39:10.569Z,98846.66
2017-11-29T16:41:37.154Z,98846.36
2017-11-29T16:44:04.266Z,98854.91
2017-11-29T16:46:30.711Z,98855.74
2017-11-29T16:48:57.187Z,98862.70
2017-11-29T16:51:24.259Z,98863.98
2017-11-29T16:53:50.663Z,98860.50
2017-11-29T16:56:17.033Z,98863.84
2017-11-29T16:58:43.416Z,98862.86
2017-11-29T17:01:09.871Z,98864.98
2017-11-29T17:03:36.306Z,98852.13
2017-11-29T17:06:02.633Z,98865.25
2017-11-29T17:08:28.993Z,98864.63
2017-11-29T17:10:55.301Z,98859.55
2017-11-29T17:13:21.612Z,98863.17
2017-11-29T17:15:47.909Z,98865.15
2017-11-29T17:18:14.236Z,98869.62
2017-11-29T17:20:40.531Z,98864.80
2017-11-29T17:23:06.876Z,98854.98
2017-11-29T17:25:33.297Z,98857.89
2017-11-29T17:27:59.600Z,98855.70
2017-11-29T17:30:28.526Z,98856.95
2017-11-29T17:32:54.826Z,98857.37
2017-11-29T17:35:21.854Z,98850.64
2017-11-29T17:37:48.225Z,98850.39
2017-11-29T17:40:14.578Z,98853.91
2017-11-29T17:42:40.864Z,98869.97
2017-11-29T17:45:08.056Z,98860.32
2017-11-29T17:47:34.374Z,98862.53
2017-11-29T17:50:00.677Z,98866.84
2017-11-29T17:52:26.956Z,98859.98
2017-11-29T17:54:53.232Z,98852.29
2017-11-29T17:57:20.311Z,98860.09
2017-11-29T17:59:46.609Z,98855.70
2017-11-29T18:02:13.674Z,98858.70
2017-11-29T18:04:40.702Z,98854.35
2017-11-29T18:07:07.749Z,98853.87
2017-11-29T18:09:34.080Z,98852.38
2017-11-29T18:12:00.381Z,98857.99
2017-11-29T18:14:26.664Z,98861.77
2017-11-29T18:16:52.951Z,98859.75
2017-11-29T18:19:19.283Z,98856.27
2017-11-29T18:21:45.637Z,98860.91
2017-11-29T18:24:12.163Z,98858.02
2017-11-29T18:26:38.496Z,98864.75
2017-11-29T18:29:06.262Z,98859.19
2017-11-29T18:31:32.555Z,98868.21
2017-11-29T18:33:58.836Z,98853.68
2017-11-29T18:36:25.898Z,98860.39
2017-11-29T18:38:52.246Z,98860.63
2017-11-29T18:41:18.589Z,98861.56
2017-11-29T18:43:44.887Z,98856.02
2017-11-29T18:46:11.908Z,98861.77
2017-11-29T18:48:38.200Z,98858.25
2017-11-29T18:51:04.506Z,98851.41
2017-11-29T18:53:30.811Z,98852.57
2017-11-29T18:55:57.836Z,98850.80
2017-11-29T18:58:24.307Z,98848.88
2017-11-29T19:00:50.565Z,98856.20
2017-11-29T19:03:16.867Z,98849.23
2017-11-29T19:05:43.939Z,98860.20
2017-11-29T19:08:10.260Z,98858.94
2017-11-29T19:10:36.597Z,98860.42
2017-11-29T19:13:02.910Z,98859.52
2017-11-29T19:15:29.952Z,98855.30
2017-11-29T19:17:57.004Z,98847.94
2017-11-29T19:20:24.015Z,98853.17
2017-11-29T19:22:50.270Z,98856.92
2017-11-29T19:25:17.463Z,98857.19
2017-11-29T19:27:43.722Z,98846.22
2017-11-29T19:30:10.011Z,98856.00
2017-11-29T19:32:36.301Z,98857.96
2017-11-29T19:35:02.621Z,98863.44
2017-11-29T19:37:28.962Z,98866.19
2017-11-29T19:39:55.227Z,98868.38
2017-11-29T19:42:22.697Z,98863.81
2017-11-29T19:44:49.008Z,98869.78
2017-11-29T19:47:16.093Z,98862.44
2017-11-29T19:49:42.380Z,98864.15
2017-11-29T19:52:09.586Z,98859.89
2017-11-29T19:54:35.876Z,98861.48
2017-11-29T19:57:02.854Z,98866.63
2017-11-29T19:59:29.166Z,98859.19
2017-11-29T20:01:55.486Z,98854.14
2017-11-29T20:04:21.791Z,98857.98
2017-11-29T20:06:48.147Z,98859.94
2017-11-29T20:09:14.438Z,98853.59
2017-11-29T20:11:40.733Z,98857.94
2017-11-29T20:14:07.106Z,98861.91
2017-11-29T20:16:33.432Z,98862.11
2017-11-29T20:19:00.465Z,98862.78
2017-11-29T20:21:27.075Z,98860.81
2017-11-29T20:23:54.664Z,98854.83
2017-11-29T20:26:21.003Z,98857.67
2017-11-29T20:28:47.327Z,98851.95
2017-11-29T20:31:13.788Z,98855.72
2017-11-29T20:33:40.143Z,98855.17
2017-11-29T20:36:06.391Z,98853.30
2017-11-29T20:38:32.720Z,98855.72
2017-11-29T20:40:59.334Z,98858.90
2017-11-29T20:43:27.169Z,98854.55
2017-11-29T20:45:53.419Z,98856.22
2017-11-29T20:48:21.405Z,98846.33
2017-11-29T20:50:47.888Z,98839.67
2017-11-29T20:53:14.257Z,98844.94
2017-11-29T20:55:40.555Z,98845.86
2017-11-29T20:58:07.052Z,98846.33
2017-11-29T21:00:33.462Z,98848.06
2017-11-29T21:03:00.556Z,98840.91
2017-11-29T21:05:26.839Z,98831.67
2017-11-29T21:07:54.386Z,98842.75
2017-11-29T21:10:21.486Z,98848.44
2017-11-29T21:12:47.835Z,98850.83
2017-11-29T21:15:14.155Z,98844.81
2017-11-29T21:17:40.421Z,98844.23
2017-11-29T21:20:06.757Z,98847.74
2017-11-29T21:22:33.525Z,98845.12
2017-11-29T21:25:00.002Z,98848.41
2017-11-29T21:27:26.582Z,98844.70
2017-11-29T21:29:53.742Z,98841.64
2017-11-29T21:32:20.345Z,98837.38
2017-11-29T21:34:46.648Z,98834.72
2017-11-29T21:37:12.938Z,98831.75
2017-11-29T21:39:39.955Z,98837.56
2017-11-29T21:42:06.366Z,98826.66
2017-11-29T21:44:32.689Z,98832.71
2017-11-29T21:46:59.030Z,98829.95
2017-11-29T21:49:25.444Z,98838.48
2017-11-29T21:51:51.792Z,98840.56
2017-11-29T21:54:18.114Z,98839.09
2017-11-29T21:56:44.522Z,98842.25
2017-11-29T21:59:11.548Z,98843.06
2017-11-29T22:01:38.594Z,98845.27
2017-11-29T22:04:12.528Z,98847.86
2017-11-29T22:06:39.542Z,98844.05
2017-11-29T22:09:05.896Z,98843.48
2017-11-29T22:11:32.910Z,98843.06
2017-11-29T22:13:59.230Z,98835.39
2017-11-29T22:16:25.499Z,98841.48
2017-11-29T22:18:52.493Z,98836.70
2017-11-29T22:21:18.820Z,98836.05
2017-11-29T22:23:45.147Z,98837.67
2017-11-29T22:26:11.403Z,98835.09
2017-11-29T22:28:37.752Z,98840.75
2017-11-29T22:31:04.015Z,98839.98
2017-11-29T22:33:30.333Z,98829.28
2017-11-29T22:35:57.328Z,98832.84
2017-11-29T22:38:24.191Z,98817.70
2017-11-29T22:40:50.488Z,98821.69
2017-11-29T22:43:16.783Z,98821.86
2017-11-29T22:45:43.806Z,98816.31
2017-11-29T22:48:10.103Z,98824.78
2017-11-29T22:50:36.350Z,98816.34
2017-11-29T22:53:02.629Z,98814.13
2017-11-29T22:55:29.660Z,98816.70
2017-11-29T22:57:56.651Z,98813.97
2017-11-29T23:00:26.761Z,98812.16
2017-11-29T23:02:53.069Z,98814.58
2017-11-29T23:05:20.117Z,98818.28
2017-11-29T23:07:47.185Z,98818.05
2017-11-29T23:10:13.459Z,98817.27
2017-11-29T23:12:39.736Z,98824.45
2017-11-29T23:15:06.019Z,98816.18
2017-11-29T23:17:32.316Z,98805.58
2017-11-29T23:19:58.621Z,98809.30
2017-11-29T23:22:25.627Z,98805.28
2017-11-29T23:24:51.897Z,98804.03
2017-11-29T23:27:18.906Z,98796.77
2017-11-29T23:29:45.215Z,98787.11
2017-11-29T23:32:11.519Z,98787.82
2017-11-29T23:34:37.789Z,98792.41
2017-11-29T23:37:04.100Z,98781.09
2017-11-29T23:39:30.398Z,98780.45
2017-11-29T23:41:56.686Z,98774.05
2017-11-29T23:44:23.050Z,98774.56
2017-11-29T23:46:50.059Z,98769.52
2017-11-29T23:49:16.344Z,98767.15
2017-11-29T23:51:42.642Z,98764.52
2017-11-29T23:54:08.934Z,98757.48
2017-11-29T23:56:35.337Z,98757.79
2017-11-29T23:59:01.634Z,98754.25
